createdAt,value
2023-07-04T00:01:11.933Z,1.90
2023-07-04T00:03:43.439Z,2.20
2023-07-04T00:06:13.887Z,1.98
2023-07-04T00:08:40.672Z,2.20
2023-07-04T00:11:08.807Z,2.08
2023-07-04T00:13:37.549Z,1.60
2023-07-04T00:16:07.799Z,1.73
2023-07-04T00:18:35.473Z,1.80
2023-07-04T00:21:04.777Z,1.63
2023-07-04T00:23:35.113Z,1.52
2023-07-04T00:26:03.821Z,1.95
2023-07-04T00:28:30.297Z,1.85
2023-07-04T00:30:57.109Z,2.20
2023-07-04T00:33:25.705Z,1.70
2023-07-04T00:36:08.492Z,1.70
2023-07-04T00:38:36.612Z,1.80
2023-07-04T00:41:04.649Z,1.77
2023-07-04T00:44:10.736Z,1.65
2023-07-04T00:46:42.216Z,1.73
2023-07-04T00:49:19.106Z,1.80
2023-07-04T00:51:51.576Z,1.88
2023-07-04T00:54:21.203Z,1.90
2023-07-04T00:56:47.795Z,1.90
2023-07-04T00:59:14.643Z,1.83
2023-07-04T01:01:43.561Z,1.73
2023-07-04T01:04:10.149Z,1.90
2023-07-04T01:06:47.927Z,1.90
2023-07-04T01:09:18.352Z,1.88
2023-07-04T01:11:50.210Z,2.00
2023-07-04T01:14:22.074Z,2.22
2023-07-04T01:16:48.905Z,1.90
2023-07-04T01:19:29.226Z,2.22
2023-07-04T01:22:13.496Z,2.30
2023-07-04T01:24:55.231Z,2.92
2023-07-04T01:27:23.241Z,2.72
2023-07-04T01:29:49.895Z,2.55
2023-07-04T01:32:16.468Z,2.47
2023-07-04T01:34:42.904Z,2.35
2023-07-04T01:37:09.313Z,2.13
2023-07-04T01:39:35.758Z,2.30
2023-07-04T01:42:06.252Z,2.65
2023-07-04T01:44:33.790Z,2.22
2023-07-04T01:47:00.398Z,2.08
2023-07-04T01:49:27.028Z,2.28
2023-07-04T01:51:53.766Z,2.40
2023-07-04T01:54:22.571Z,2.30
2023-07-04T01:56:53.867Z,2.28
2023-07-04T01:59:21.673Z,2.00
2023-07-04T02:01:49.003Z,2.55
2023-07-04T02:04:15.658Z,2.30
2023-07-04T02:06:42.748Z,2.50
2023-07-04T02:09:09.262Z,2.38
2023-07-04T02:11:35.673Z,2.55
2023-07-04T02:14:04.402Z,2.42
2023-07-04T02:16:31.002Z,2.47
2023-07-04T02:18:58.771Z,2.78
2023-07-04T02:21:27.628Z,2.30
2023-07-04T02:23:55.579Z,2.20
2023-07-04T02:26:22.320Z,2.50
2023-07-04T02:28:49.923Z,2.55
2023-07-04T02:31:16.769Z,2.38
2023-07-04T02:33:48.821Z,2.28
2023-07-04T02:36:17.563Z,2.38
2023-07-04T02:38:46.193Z,2.70
2023-07-04T02:41:14.091Z,2.20
2023-07-04T02:43:41.573Z,2.40
2023-07-04T02:46:08.931Z,2.22
2023-07-04T02:48:35.665Z,2.58
2023-07-04T02:51:02.680Z,2.53
2023-07-04T02:53:29.739Z,2.45
2023-07-04T02:55:56.947Z,2.28
2023-07-04T02:58:23.786Z,2.20
2023-07-04T03:00:51.476Z,2.20
2023-07-04T03:03:19.166Z,2.38
2023-07-04T03:05:46.534Z,2.25
2023-07-04T03:08:12.931Z,2.50
2023-07-04T03:10:39.360Z,2.28
2023-07-04T03:13:05.845Z,2.35
2023-07-04T03:15:32.306Z,2.25
2023-07-04T03:18:02.266Z,2.15
2023-07-04T03:20:28.924Z,2.28
2023-07-04T03:22:56.663Z,2.15
2023-07-04T03:25:23.181Z,2.03
2023-07-04T03:27:50.389Z,2.25
2023-07-04T03:30:16.936Z,2.20
2023-07-04T03:32:43.420Z,2.42
2023-07-04T03:35:10.098Z,2.10
2023-07-04T03:37:37.844Z,2.00
2023-07-04T03:40:09.864Z,2.25
2023-07-04T03:42:42.406Z,2.15
2023-07-04T03:45:09.756Z,2.25
2023-07-04T03:47:36.684Z,2.17
2023-07-04T03:50:03.868Z,2.25
2023-07-04T03:52:30.315Z,2.25
2023-07-04T03:54:56.722Z,2.30
2023-07-04T03:57:26.651Z,1.88
2023-07-04T03:59:53.425Z,2.03
2023-07-04T04:02:21.103Z,2.10
2023-07-04T04:04:47.903Z,2.10
2023-07-04T04:07:15.922Z,2.20
2023-07-04T04:09:44.025Z,2.05
2023-07-04T04:12:11.122Z,2.10
2023-07-04T04:14:37.837Z,2.15
2023-07-04T04:17:05.118Z,2.05
2023-07-04T04:19:31.619Z,2.20
2023-07-04T04:21:58.038Z,2.10
2023-07-04T04:24:24.569Z,1.85
2023-07-04T04:26:51.315Z,2.40
2023-07-04T04:29:18.483Z,2.42
2023-07-04T04:31:46.691Z,2.38
2023-07-04T04:34:14.274Z,1.98
2023-07-04T04:36:40.970Z,2.50
2023-07-04T04:39:07.581Z,2.28
2023-07-04T04:41:34.465Z,2.38
2023-07-04T04:44:05.905Z,2.28
2023-07-04T04:46:33.225Z,2.50
2023-07-04T04:48:59.918Z,2.63
2023-07-04T04:51:26.453Z,2.50
2023-07-04T04:53:53.323Z,2.70
2023-07-04T04:56:20.907Z,2.50
2023-07-04T04:58:47.321Z,2.50
2023-07-04T05:01:21.220Z,2.63
2023-07-04T05:03:51.777Z,2.72
2023-07-04T05:06:18.431Z,2.45
2023-07-04T05:08:46.334Z,2.65
2023-07-04T05:11:14.437Z,2.63
2023-07-04T05:13:42.452Z,2.80
2023-07-04T05:16:12.856Z,2.70
2023-07-04T05:18:40.538Z,2.58
2023-07-04T05:21:10.142Z,2.90
2023-07-04T05:23:41.374Z,2.70
2023-07-04T05:26:14.124Z,2.75
2023-07-04T05:28:41.320Z,2.63
2023-07-04T05:31:15.057Z,3.03
2023-07-04T05:33:43.142Z,2.90
2023-07-04T05:36:18.083Z,2.72
2023-07-04T05:38:51.667Z,3.00
2023-07-04T05:41:21.294Z,3.25
2023-07-04T05:43:48.158Z,3.60
2023-07-04T05:46:19.126Z,3.50
2023-07-04T05:48:46.560Z,3.70
2023-07-04T05:51:15.772Z,3.28
2023-07-04T05:53:44.252Z,3.10
2023-07-04T05:56:17.261Z,2.80
2023-07-04T05:58:46.251Z,3.10
2023-07-04T06:01:44.345Z,2.90
2023-07-04T06:04:12.436Z,3.10
2023-07-04T06:07:03.408Z,2.70
2023-07-04T06:09:29.862Z,3.40
2023-07-04T06:11:57.772Z,3.17
2023-07-04T06:14:29.445Z,2.88
2023-07-04T06:17:00.673Z,3.05
2023-07-04T06:19:27.168Z,3.60
2023-07-04T06:21:54.275Z,3.00
2023-07-04T06:24:22.087Z,2.92
2023-07-04T06:26:48.775Z,3.17
2023-07-04T06:29:15.354Z,3.00
2023-07-04T06:31:43.761Z,2.90
2023-07-04T06:34:11.240Z,2.97
2023-07-04T06:36:37.750Z,3.10
2023-07-04T06:39:04.306Z,2.72
2023-07-04T06:41:32.181Z,2.67
2023-07-04T06:43:59.964Z,2.90
2023-07-04T06:46:26.457Z,2.70
2023-07-04T06:48:53.450Z,3.00
2023-07-04T06:51:21.456Z,2.80
2023-07-04T06:53:48.949Z,2.55
2023-07-04T06:56:19.813Z,2.55
2023-07-04T06:58:54.147Z,2.60
2023-07-04T07:01:30.116Z,3.25
2023-07-04T07:03:58.794Z,3.28
2023-07-04T07:06:26.640Z,2.67
2023-07-04T07:08:53.470Z,2.90
2023-07-04T07:11:22.050Z,2.42
2023-07-04T07:13:48.688Z,2.50
2023-07-04T07:16:18.804Z,2.72
2023-07-04T07:18:46.776Z,3.78
2023-07-04T07:21:15.561Z,3.85
2023-07-04T07:23:42.328Z,3.20
2023-07-04T07:26:11.578Z,3.70
2023-07-04T07:28:42.234Z,3.25
2023-07-04T07:31:32.609Z,3.42
2023-07-04T07:34:00.623Z,3.75
2023-07-04T07:36:29.377Z,3.50
2023-07-04T07:38:56.505Z,3.45
2023-07-04T07:41:28.409Z,3.50
2023-07-04T07:43:55.085Z,3.80
2023-07-04T07:46:21.664Z,3.65
2023-07-04T07:48:49.925Z,3.88
2023-07-04T07:51:17.903Z,4.82
2023-07-04T07:53:46.428Z,4.13
2023-07-04T07:56:15.495Z,5.50
2023-07-04T07:58:42.092Z,5.82
2023-07-04T08:01:33.804Z,5.22
2023-07-04T08:04:01.257Z,5.20
2023-07-04T08:06:36.134Z,5.18
2023-07-04T08:09:05.321Z,5.90
2023-07-04T08:11:32.290Z,4.88
2023-07-04T08:14:00.222Z,5.45
2023-07-04T08:16:30.526Z,4.97
2023-07-04T08:18:59.766Z,5.38
2023-07-04T08:21:28.407Z,5.22
2023-07-04T08:23:55.513Z,5.20
2023-07-04T08:26:24.842Z,5.30
2023-07-04T08:28:56.343Z,5.05
2023-07-04T08:31:25.431Z,5.18
2023-07-04T08:33:51.866Z,5.40
2023-07-04T08:36:19.855Z,5.22
2023-07-04T08:38:50.082Z,4.93
2023-07-04T08:41:24.695Z,4.78
2023-07-04T08:43:55.187Z,4.90
2023-07-04T08:46:22.340Z,5.45
2023-07-04T08:48:49.432Z,5.00
2023-07-04T08:51:30.827Z,5.10
2023-07-04T08:54:02.157Z,4.75
2023-07-04T08:56:35.697Z,4.80
2023-07-04T08:59:30.789Z,4.57
2023-07-04T09:02:17.533Z,4.70
2023-07-04T09:05:03.236Z,4.72
2023-07-04T09:07:40.890Z,4.57
2023-07-04T09:11:01.647Z,4.60
2023-07-04T09:13:34.406Z,4.93
2023-07-04T09:16:06.176Z,4.97
2023-07-04T09:18:32.851Z,5.05
2023-07-04T09:21:15.712Z,5.15
2023-07-04T09:23:44.613Z,5.00
2023-07-04T09:26:14.552Z,4.88
2023-07-04T09:28:43.539Z,4.60
2023-07-04T09:31:22.411Z,4.95
2023-07-04T09:33:50.727Z,5.30
2023-07-04T09:36:19.010Z,4.88
2023-07-04T09:38:58.530Z,5.13
2023-07-04T09:41:27.037Z,4.88
2023-07-04T09:43:58.223Z,4.40
2023-07-04T09:46:33.160Z,4.80
2023-07-04T09:49:19.472Z,4.22
2023-07-04T09:51:59.317Z,3.97
2023-07-04T09:54:26.200Z,4.18
2023-07-04T09:56:52.770Z,4.72
2023-07-04T09:59:23.957Z,3.97
2023-07-04T10:01:58.669Z,4.72
2023-07-04T10:04:35.069Z,4.55
2023-07-04T10:07:04.419Z,4.32
2023-07-04T10:09:34.680Z,4.32
2023-07-04T10:12:14.536Z,4.22
2023-07-04T10:14:55.894Z,4.22
2023-07-04T10:17:28.260Z,4.20
2023-07-04T10:20:01.815Z,4.30
2023-07-04T10:22:33.747Z,3.80
2023-07-04T10:25:01.314Z,4.53
2023-07-04T10:27:36.928Z,4.07
2023-07-04T10:30:10.042Z,4.43
2023-07-04T10:32:42.192Z,4.07
2023-07-04T10:35:14.778Z,4.00
2023-07-04T10:37:45.643Z,4.10
2023-07-04T10:40:15.764Z,4.22
2023-07-04T10:42:52.225Z,4.10
2023-07-04T10:45:20.178Z,3.92
2023-07-04T10:47:50.625Z,4.13
2023-07-04T10:50:33.549Z,5.20
2023-07-04T10:53:00.168Z,5.03
2023-07-04T10:55:51.262Z,4.50
2023-07-04T10:58:21.883Z,4.55
2023-07-04T11:00:55.800Z,4.32
2023-07-04T11:03:29.560Z,3.90
2023-07-04T11:05:58.097Z,4.05
2023-07-04T11:08:29.348Z,3.58
2023-07-04T11:11:06.293Z,4.22
2023-07-04T11:13:34.422Z,4.05
2023-07-04T11:16:05.088Z,3.85
2023-07-04T11:18:37.886Z,4.35
2023-07-04T11:21:12.286Z,4.35
2023-07-04T11:23:55.294Z,4.30
2023-07-04T11:26:51.118Z,4.22
2023-07-04T11:29:20.750Z,4.25
2023-07-04T11:32:03.314Z,4.72
2023-07-04T11:34:47.588Z,4.32
2023-07-04T11:37:22.932Z,3.95
2023-07-04T11:39:54.048Z,4.45
2023-07-04T11:42:27.772Z,4.45
2023-07-04T11:44:59.821Z,4.07
2023-07-04T11:47:54.946Z,3.83
2023-07-04T11:50:35.863Z,4.20
2023-07-04T11:53:10.534Z,4.53
2023-07-04T11:55:38.582Z,4.05
2023-07-04T11:58:07.977Z,4.72
2023-07-04T12:00:38.642Z,4.30
2023-07-04T12:03:17.228Z,3.92
2023-07-04T12:05:45.987Z,4.18
2023-07-04T12:08:21.267Z,4.15
2023-07-04T12:10:47.788Z,3.88
2023-07-04T12:13:20.828Z,4.32
2023-07-04T12:15:50.644Z,4.80
2023-07-04T12:18:25.372Z,5.53
2023-07-04T12:20:53.282Z,5.63
2023-07-04T12:23:21.340Z,5.07
2023-07-04T12:25:53.473Z,4.55
2023-07-04T12:28:25.745Z,4.78
2023-07-04T12:30:55.122Z,5.15
2023-07-04T12:33:25.523Z,4.43
2023-07-04T12:35:57.795Z,4.50
2023-07-04T12:38:29.040Z,4.20
2023-07-04T12:40:58.136Z,4.57
2023-07-04T12:51:21.418Z,4.90
2023-07-04T12:53:49.016Z,4.78
2023-07-04T12:56:19.870Z,4.68
2023-07-04T12:58:48.177Z,4.88
2023-07-04T13:01:25.566Z,4.70
2023-07-04T13:04:00.058Z,5.40
2023-07-04T13:06:29.506Z,4.50
2023-07-04T13:08:58.200Z,4.63
2023-07-04T13:11:27.516Z,5.25
2023-07-04T13:14:07.377Z,5.22
2023-07-04T13:16:35.271Z,5.25
2023-07-04T13:19:05.471Z,5.75
2023-07-04T13:21:40.792Z,4.88
2023-07-04T13:26:42.941Z,4.85
2023-07-04T13:34:24.476Z,5.45
2023-07-04T13:37:03.781Z,4.95
2023-07-04T13:42:01.583Z,5.45
2023-07-04T13:46:57.542Z,5.30
2023-07-04T13:49:25.192Z,5.80
2023-07-04T13:51:54.020Z,5.95
2023-07-04T13:54:20.523Z,6.55
2023-07-04T13:56:47.522Z,5.75
2023-07-04T13:59:14.007Z,6.32
2023-07-04T14:06:39.647Z,5.60
2023-07-04T14:09:06.246Z,5.72
2023-07-04T14:11:32.962Z,5.30
2023-07-04T14:14:07.032Z,6.05
2023-07-04T14:16:41.719Z,5.95
2023-07-04T14:21:55.653Z,5.78
2023-07-04T14:24:22.568Z,6.10
2023-07-04T14:26:49.099Z,6.18
2023-07-04T14:29:15.833Z,6.00
2023-07-04T14:31:44.646Z,6.18
2023-07-04T14:34:11.378Z,6.00
2023-07-04T14:36:37.873Z,5.75
2023-07-04T14:39:05.240Z,6.15
2023-07-04T14:44:03.429Z,6.85
2023-07-04T14:46:30.020Z,6.75
2023-07-04T14:48:56.504Z,6.68
2023-07-04T14:51:23.273Z,6.50
2023-07-04T14:53:49.686Z,6.97
2023-07-04T14:56:17.490Z,7.07
2023-07-04T14:58:44.407Z,7.55
2023-07-04T15:01:18.850Z,7.65
2023-07-04T15:03:45.472Z,7.72
2023-07-04T15:06:15.897Z,8.60
2023-07-04T15:08:44.843Z,7.35
2023-07-04T15:11:11.446Z,7.72
2023-07-04T15:13:37.957Z,8.13
2023-07-04T15:16:07.727Z,7.53
2023-07-04T15:18:37.472Z,7.25
2023-07-04T15:21:07.555Z,7.80
2023-07-04T15:23:35.097Z,7.78
2023-07-04T15:26:15.507Z,7.85
2023-07-04T15:28:50.233Z,7.97
2023-07-04T15:31:17.350Z,7.82
2023-07-04T15:33:44.705Z,7.75
2023-07-04T15:36:12.274Z,7.60
2023-07-04T15:38:39.029Z,7.85
2023-07-04T15:41:09.113Z,7.32
2023-07-04T15:43:37.184Z,8.73
2023-07-04T15:46:12.106Z,7.95
2023-07-04T15:48:39.975Z,7.43
2023-07-04T15:51:07.680Z,7.95
2023-07-04T15:53:34.661Z,7.50
2023-07-04T15:56:07.145Z,7.30
2023-07-04T15:58:33.889Z,6.72
2023-07-04T16:01:02.994Z,7.22
2023-07-04T16:03:31.570Z,7.00
2023-07-04T16:05:59.184Z,6.97
2023-07-04T16:08:26.908Z,6.22
2023-07-04T16:10:58.563Z,6.68
2023-07-04T16:13:25.696Z,7.03
2023-07-04T16:15:52.709Z,7.03
2023-07-04T16:18:21.751Z,7.03
2023-07-04T16:20:48.962Z,6.97
2023-07-04T16:23:15.524Z,6.75
2023-07-04T16:25:43.033Z,7.32
2023-07-04T16:28:10.621Z,6.68
2023-07-04T16:30:37.064Z,6.32
2023-07-04T16:33:03.699Z,6.45
2023-07-04T16:35:30.291Z,6.25
2023-07-04T16:37:59.642Z,6.30
2023-07-04T16:40:26.171Z,6.03
2023-07-04T16:42:54.767Z,6.18
2023-07-04T16:45:21.343Z,6.68
2023-07-04T16:47:47.833Z,6.45
2023-07-04T16:50:29.976Z,5.82
2023-07-04T16:52:57.056Z,6.30
2023-07-04T16:55:23.577Z,5.68
2023-07-04T16:57:50.112Z,6.10
2023-07-04T17:00:16.709Z,6.35
2023-07-04T17:02:44.243Z,6.18
2023-07-04T17:05:10.768Z,5.88
2023-07-04T17:07:38.882Z,5.78
2023-07-04T17:10:05.962Z,6.13
2023-07-04T17:12:34.718Z,6.80
2023-07-04T17:15:01.193Z,6.50
2023-07-04T17:17:27.673Z,6.68
2023-07-04T17:19:55.474Z,6.25
2023-07-04T17:22:21.973Z,6.13
2023-07-04T17:24:56.120Z,6.30
2023-07-04T17:27:25.856Z,6.00
2023-07-04T17:29:52.286Z,6.22
2023-07-04T17:32:18.719Z,5.88
2023-07-04T17:34:45.172Z,6.38
2023-07-04T17:37:12.272Z,6.35
2023-07-04T17:39:38.701Z,6.35
2023-07-04T17:42:05.397Z,6.25
2023-07-04T17:44:33.285Z,6.15
2023-07-04T17:47:01.115Z,6.95
2023-07-04T17:49:28.619Z,6.32
2023-07-04T17:51:56.587Z,6.60
2023-07-04T17:54:23.041Z,6.00
2023-07-04T17:56:50.117Z,6.60
2023-07-04T17:59:16.546Z,6.28
2023-07-04T18:01:43.040Z,6.35
2023-07-04T18:04:09.850Z,6.50
2023-07-04T18:06:37.330Z,6.78
2023-07-04T18:09:05.611Z,6.70
2023-07-04T18:11:33.547Z,6.47
2023-07-04T18:14:00.372Z,6.88
2023-07-04T18:16:28.142Z,6.55
2023-07-04T18:18:55.220Z,6.32
2023-07-04T18:21:24.494Z,6.05
2023-07-04T18:23:57.825Z,6.43
2023-07-04T18:26:25.695Z,6.90
2023-07-04T18:28:56.731Z,7.25
2023-07-04T18:31:31.402Z,7.40
2023-07-04T18:34:02.153Z,7.65
2023-07-04T18:36:34.670Z,7.80
2023-07-04T18:39:02.031Z,7.43
2023-07-04T18:41:35.667Z,6.97
2023-07-04T18:44:02.118Z,6.85
2023-07-04T18:46:31.102Z,6.68
2023-07-04T18:48:58.266Z,6.60
2023-07-04T18:51:28.087Z,7.32
2023-07-04T18:53:59.477Z,7.10
2023-07-04T18:56:27.516Z,6.40
2023-07-04T18:58:54.883Z,6.30
2023-07-04T19:01:25.254Z,6.63
2023-07-04T19:03:53.543Z,6.68
2023-07-04T19:06:22.867Z,6.93
2023-07-04T19:08:51.132Z,6.30
2023-07-04T19:11:21.274Z,6.60
2023-07-04T19:14:06.260Z,6.28
2023-07-04T19:16:38.895Z,6.63
2023-07-04T19:19:06.580Z,6.72
2023-07-04T19:21:34.492Z,7.10
2023-07-04T19:24:01.072Z,7.18
2023-07-04T19:26:27.930Z,7.13
2023-07-04T19:28:54.788Z,6.90
2023-07-04T19:31:21.673Z,6.57
2023-07-04T19:33:48.219Z,7.03
2023-07-04T19:36:17.063Z,7.60
2023-07-04T19:38:43.550Z,7.45
2023-07-04T19:41:11.580Z,7.55
2023-07-04T19:43:38.330Z,7.50
2023-07-04T19:46:07.519Z,7.00
2023-07-04T19:48:36.438Z,7.47
2023-07-04T19:51:15.386Z,7.13
2023-07-04T19:53:43.265Z,7.50
2023-07-04T19:56:15.373Z,7.05
2023-07-04T19:58:48.765Z,6.95
2023-07-04T20:01:18.648Z,7.60
2023-07-04T20:03:45.704Z,7.38
2023-07-04T20:06:15.079Z,7.97
2023-07-04T20:08:42.863Z,7.07
2023-07-04T20:11:10.445Z,7.55
2023-07-04T20:13:37.059Z,7.90
2023-07-04T20:16:13.863Z,8.15
2023-07-04T20:18:40.410Z,8.40
2023-07-04T20:21:06.869Z,7.22
2023-07-04T20:23:33.785Z,7.50
2023-07-04T20:26:02.377Z,7.07
2023-07-04T20:28:29.394Z,8.05
2023-07-04T20:30:58.383Z,7.40
2023-07-04T20:33:27.835Z,7.95
2023-07-04T20:35:54.609Z,8.43
2023-07-04T20:38:21.133Z,7.80
2023-07-04T20:40:54.231Z,7.47
2023-07-04T20:43:25.215Z,7.78
2023-07-04T20:45:57.646Z,7.72
2023-07-04T20:48:24.594Z,7.50
2023-07-04T20:50:52.577Z,7.50
2023-07-04T20:53:19.797Z,7.38
2023-07-04T20:55:50.234Z,7.32
2023-07-04T20:58:19.397Z,7.35
2023-07-04T21:00:45.923Z,7.40
2023-07-04T21:03:12.388Z,8.07
2023-07-04T21:05:40.769Z,7.90
2023-07-04T21:08:08.220Z,7.88
2023-07-04T21:10:40.013Z,8.10
2023-07-04T21:13:20.305Z,8.27
2023-07-04T21:15:48.884Z,8.15
2023-07-04T21:18:15.976Z,7.32
2023-07-04T21:20:42.552Z,7.47
2023-07-04T21:23:11.832Z,7.68
2023-07-04T21:25:42.349Z,7.55
2023-07-04T21:28:08.938Z,7.25
2023-07-04T21:30:35.353Z,7.72
2023-07-04T21:33:02.029Z,8.25
2023-07-04T21:35:32.694Z,8.05
2023-07-04T21:37:59.154Z,7.93
2023-07-04T21:40:25.604Z,7.53
2023-07-04T21:42:53.649Z,7.78
2023-07-04T21:45:20.046Z,7.78
2023-07-04T21:47:46.756Z,8.55
2023-07-04T21:50:15.618Z,8.63
2023-07-04T21:52:45.034Z,8.38
2023-07-04T21:55:11.539Z,8.88
2023-07-04T21:57:37.945Z,8.73
2023-07-04T22:00:05.972Z,8.20
2023-07-04T22:02:32.696Z,8.57
2023-07-04T22:04:59.184Z,8.43
2023-07-04T22:07:26.828Z,9.07
2023-07-04T22:09:54.511Z,8.80
2023-07-04T22:12:21.066Z,7.97
2023-07-04T22:14:47.663Z,8.48
2023-07-04T22:17:15.348Z,7.28
2023-07-04T22:19:41.813Z,8.15
2023-07-04T22:22:08.279Z,8.00
2023-07-04T22:24:35.418Z,7.80
2023-07-04T22:27:01.859Z,7.65
2023-07-04T22:29:28.514Z,8.48
2023-07-04T22:31:57.196Z,7.82
2023-07-04T22:34:23.629Z,7.30
2023-07-04T22:36:50.060Z,7.30
2023-07-04T22:39:16.518Z,8.40
2023-07-04T22:41:42.912Z,7.80
2023-07-04T22:44:10.304Z,7.88
2023-07-04T22:46:36.826Z,7.65
2023-07-04T22:49:03.564Z,7.65
2023-07-04T22:51:29.971Z,7.50
2023-07-04T22:53:56.425Z,7.63
2023-07-04T22:56:25.367Z,7.72
2023-07-04T22:58:52.822Z,7.57
2023-07-04T23:01:22.085Z,8.10
2023-07-04T23:03:49.277Z,7.95
2023-07-04T23:06:17.637Z,7.88
2023-07-04T23:08:44.967Z,8.13
2023-07-04T23:11:12.662Z,7.50
2023-07-04T23:13:39.836Z,8.20
2023-07-04T23:16:10.380Z,7.55
2023-07-04T23:18:37.771Z,8.10
2023-07-04T23:21:05.120Z,7.95
2023-07-04T23:23:32.840Z,8.00
2023-07-04T23:26:00.376Z,7.35
2023-07-04T23:28:26.885Z,7.28
2023-07-04T23:30:54.972Z,7.72
2023-07-04T23:33:21.411Z,7.80
2023-07-04T23:36:01.744Z,7.90
2023-07-04T23:38:29.821Z,7.82
2023-07-04T23:40:57.349Z,7.72
2023-07-04T23:43:27.521Z,7.75
2023-07-04T23:45:55.797Z,7.22
2023-07-04T23:48:25.358Z,7.70
2023-07-04T23:50:52.189Z,7.50
2023-07-04T23:53:19.013Z,6.85
2023-07-04T23:55:45.515Z,7.70
2023-07-04T23:58:12.034Z,7.30
